sensor_id;sensor_type;location;lat;lon;timestamp;P1;durP1;ratioP1;P2;durP2;ratioP2
54197;SDS011;40105;52.366;17.000;2024-03-23T00:55:01;8.65;;;3.35;;
54197;SDS011;40105;52.366;17.000;2024-03-23T00:57:26;10.57;;;3.83;;
54197;SDS011;40105;52.366;17.000;2024-03-23T00:59:51;13.77;;;4.17;;
54197;SDS011;40105;52.366;17.000;2024-03-23T01:02:17;7.57;;;3.23;;
54197;SDS011;40105;52.366;17.000;2024-03-23T01:04:42;7.50;;;4.65;;
54197;SDS011;40105;52.366;17.000;2024-03-23T01:07:07;5.73;;;3.00;;
54197;SDS011;40105;52.366;17.000;2024-03-23T01:09:32;5.77;;;3.07;;
54197;SDS011;40105;52.366;17.000;2024-03-23T01:11:57;9.30;;;3.93;;
54197;SDS011;40105;52.366;17.000;2024-03-23T01:14:22;22.73;;;2.40;;
54197;SDS011;40105;52.366;17.000;2024-03-23T01:16:48;9.90;;;3.07;;
54197;SDS011;40105;52.366;17.000;2024-03-23T01:19:13;8.70;;;5.13;;
54197;SDS011;40105;52.366;17.000;2024-03-23T01:21:38;6.63;;;4.05;;
54197;SDS011;40105;52.366;17.000;2024-03-23T01:24:03;7.63;;;3.65;;
54197;SDS011;40105;52.366;17.000;2024-03-23T01:26:28;4.57;;;3.07;;
54197;SDS011;40105;52.366;17.000;2024-03-23T01:28:53;7.23;;;4.67;;
54197;SDS011;40105;52.366;17.000;2024-03-23T01:31:19;3.10;;;2.07;;
54197;SDS011;40105;52.366;17.000;2024-03-23T01:33:44;6.77;;;2.23;;
54197;SDS011;40105;52.366;17.000;2024-03-23T01:36:09;4.43;;;1.57;;
54197;SDS011;40105;52.366;17.000;2024-03-23T01:38:34;9.60;;;2.70;;
54197;SDS011;40105;52.366;17.000;2024-03-23T01:40:59;3.47;;;2.50;;
54197;SDS011;40105;52.366;17.000;2024-03-23T01:43:24;8.50;;;3.83;;
54197;SDS011;40105;52.366;17.000;2024-03-23T01:45:50;3.03;;;2.20;;
54197;SDS011;40105;52.366;17.000;2024-03-23T01:48:15;5.97;;;3.70;;
54197;SDS011;40105;52.366;17.000;2024-03-23T01:50:40;8.67;;;3.77;;
54197;SDS011;40105;52.366;17.000;2024-03-23T01:53:06;6.57;;;3.87;;
54197;SDS011;40105;52.366;17.000;2024-03-23T01:55:34;5.90;;;3.33;;
54197;SDS011;40105;52.366;17.000;2024-03-23T01:57:59;3.45;;;2.28;;
54197;SDS011;40105;52.366;17.000;2024-03-23T02:00:24;3.13;;;1.83;;
54197;SDS011;40105;52.366;17.000;2024-03-23T02:02:50;4.55;;;2.80;;
54197;SDS011;40105;52.366;17.000;2024-03-23T02:05:15;6.90;;;3.83;;
54197;SDS011;40105;52.366;17.000;2024-03-23T02:07:41;5.00;;;2.80;;
54197;SDS011;40105;52.366;17.000;2024-03-23T02:10:07;7.28;;;3.45;;
54197;SDS011;40105;52.366;17.000;2024-03-23T02:12:32;12.45;;;6.15;;
54197;SDS011;40105;52.366;17.000;2024-03-23T02:14:57;6.37;;;2.50;;
54197;SDS011;40105;52.366;17.000;2024-03-23T02:17:22;4.65;;;3.05;;
54197;SDS011;40105;52.366;17.000;2024-03-23T02:19:48;14.88;;;4.35;;
54197;SDS011;40105;52.366;17.000;2024-03-23T02:22:13;3.78;;;2.53;;
54197;SDS011;40105;52.366;17.000;2024-03-23T02:24:40;6.47;;;3.40;;
54197;SDS011;40105;52.366;17.000;2024-03-23T02:27:05;3.80;;;2.07;;
54197;SDS011;40105;52.366;17.000;2024-03-23T02:29:30;7.37;;;4.07;;
54197;SDS011;40105;52.366;17.000;2024-03-23T02:31:55;7.53;;;3.42;;
54197;SDS011;40105;52.366;17.000;2024-03-23T02:34:21;3.17;;;2.13;;
54197;SDS011;40105;52.366;17.000;2024-03-23T02:36:46;4.45;;;3.58;;
54197;SDS011;40105;52.366;17.000;2024-03-23T02:39:11;8.07;;;3.50;;
54197;SDS011;40105;52.366;17.000;2024-03-23T02:41:36;3.57;;;1.90;;
54197;SDS011;40105;52.366;17.000;2024-03-23T02:44:01;5.63;;;2.83;;
54197;SDS011;40105;52.366;17.000;2024-03-23T02:46:26;4.60;;;2.57;;
54197;SDS011;40105;52.366;17.000;2024-03-23T02:48:52;4.27;;;3.53;;
54197;SDS011;40105;52.366;17.000;2024-03-23T02:51:17;6.70;;;2.47;;
54197;SDS011;40105;52.366;17.000;2024-03-23T02:53:42;3.47;;;2.63;;
54197;SDS011;40105;52.366;17.000;2024-03-23T02:56:07;5.17;;;3.40;;
54197;SDS011;40105;52.366;17.000;2024-03-23T02:58:33;3.42;;;2.95;;
54197;SDS011;40105;52.366;17.000;2024-03-23T03:00:58;8.53;;;4.07;;
54197;SDS011;40105;52.366;17.000;2024-03-23T03:03:24;7.03;;;3.00;;
54197;SDS011;40105;52.366;17.000;2024-03-23T03:05:54;2.65;;;2.13;;
54197;SDS011;40105;52.366;17.000;2024-03-23T03:08:19;6.28;;;3.78;;
54197;SDS011;40105;52.366;17.000;2024-03-23T03:10:44;10.75;;;4.80;;
54197;SDS011;40105;52.366;17.000;2024-03-23T03:13:10;7.57;;;2.77;;
54197;SDS011;40105;52.366;17.000;2024-03-23T03:15:35;4.47;;;3.33;;
54197;SDS011;40105;52.366;17.000;2024-03-23T03:18:00;5.93;;;2.90;;
54197;SDS011;40105;52.366;17.000;2024-03-23T03:20:25;5.30;;;3.73;;
54197;SDS011;40105;52.366;17.000;2024-03-23T03:22:50;5.50;;;2.77;;
54197;SDS011;40105;52.366;17.000;2024-03-23T03:25:15;4.53;;;3.20;;
54197;SDS011;40105;52.366;17.000;2024-03-23T03:27:40;3.77;;;2.53;;
54197;SDS011;40105;52.366;17.000;2024-03-23T03:30:06;2.97;;;2.10;;
54197;SDS011;40105;52.366;17.000;2024-03-23T03:32:33;7.18;;;5.07;;
54197;SDS011;40105;52.366;17.000;2024-03-23T03:34:58;5.47;;;3.27;;
54197;SDS011;40105;52.366;17.000;2024-03-23T03:37:24;3.90;;;2.43;;
54197;SDS011;40105;52.366;17.000;2024-03-23T03:39:49;5.45;;;2.63;;
54197;SDS011;40105;52.366;17.000;2024-03-23T03:42:14;16.57;;;5.87;;
54197;SDS011;40105;52.366;17.000;2024-03-23T03:44:39;6.70;;;3.10;;
54197;SDS011;40105;52.366;17.000;2024-03-23T03:47:05;6.60;;;2.93;;
54197;SDS011;40105;52.366;17.000;2024-03-23T03:49:30;5.60;;;2.75;;
54197;SDS011;40105;52.366;17.000;2024-03-23T03:51:55;5.60;;;3.43;;
54197;SDS011;40105;52.366;17.000;2024-03-23T03:54:20;2.97;;;2.47;;
54197;SDS011;40105;52.366;17.000;2024-03-23T03:56:46;5.20;;;4.03;;
54197;SDS011;40105;52.366;17.000;2024-03-23T03:59:11;3.60;;;3.03;;
54197;SDS011;40105;52.366;17.000;2024-03-23T04:01:36;9.07;;;2.73;;
54197;SDS011;40105;52.366;17.000;2024-03-23T04:04:01;10.83;;;3.20;;
54197;SDS011;40105;52.366;17.000;2024-03-23T04:06:27;14.60;;;3.37;;
54197;SDS011;40105;52.366;17.000;2024-03-23T04:08:52;9.07;;;5.37;;
54197;SDS011;40105;52.366;17.000;2024-03-23T04:11:17;7.30;;;3.70;;
54197;SDS011;40105;52.366;17.000;2024-03-23T04:13:42;6.63;;;2.27;;
54197;SDS011;40105;52.366;17.000;2024-03-23T04:16:08;13.75;;;3.00;;
54197;SDS011;40105;52.366;17.000;2024-03-23T04:18:34;6.95;;;3.47;;
54197;SDS011;40105;52.366;17.000;2024-03-23T04:20:59;5.53;;;3.25;;
54197;SDS011;40105;52.366;17.000;2024-03-23T04:23:24;4.60;;;3.17;;
54197;SDS011;40105;52.366;17.000;2024-03-23T04:25:49;3.43;;;2.10;;
54197;SDS011;40105;52.366;17.000;2024-03-23T04:28:15;10.85;;;2.33;;
54197;SDS011;40105;52.366;17.000;2024-03-23T04:30:41;7.40;;;3.67;;
54197;SDS011;40105;52.366;17.000;2024-03-23T04:33:06;1.58;;;1.48;;
54197;SDS011;40105;52.366;17.000;2024-03-23T04:35:31;7.03;;;3.63;;
54197;SDS011;40105;52.366;17.000;2024-03-23T04:37:56;8.90;;;4.60;;
54197;SDS011;40105;52.366;17.000;2024-03-23T04:40:23;11.02;;;5.05;;
54197;SDS011;40105;52.366;17.000;2024-03-23T04:42:48;13.10;;;5.10;;
54197;SDS011;40105;52.366;17.000;2024-03-23T04:45:14;6.00;;;1.63;;
54197;SDS011;40105;52.366;17.000;2024-03-23T04:52:56;1.25;;;1.02;;
54197;SDS011;40105;52.366;17.000;2024-03-23T04:55:21;0.50;;;0.50;;
54197;SDS011;40105;52.366;17.000;2024-03-23T04:57:47;1.90;;;0.57;;
54197;SDS011;40105;52.366;17.000;2024-03-23T05:00:12;0.47;;;0.40;;
54197;SDS011;40105;52.366;17.000;2024-03-23T05:02:44;0.20;;;0.20;;
54197;SDS011;40105;52.366;17.000;2024-03-23T05:05:10;5.07;;;0.68;;
54197;SDS011;40105;52.366;17.000;2024-03-23T05:07:35;1.23;;;0.43;;
54197;SDS011;40105;52.366;17.000;2024-03-23T05:10:00;0.00;;;0.00;;
54197;SDS011;40105;52.366;17.000;2024-03-23T05:12:25;0.80;;;0.70;;
54197;SDS011;40105;52.366;17.000;2024-03-23T05:14:51;0.57;;;0.20;;
54197;SDS011;40105;52.366;17.000;2024-03-23T05:17:16;0.55;;;0.52;;
54197;SDS011;40105;52.366;17.000;2024-03-23T05:19:41;0.10;;;0.10;;
54197;SDS011;40105;52.366;17.000;2024-03-23T05:22:07;0.87;;;0.87;;
54197;SDS011;40105;52.366;17.000;2024-03-23T05:24:32;0.80;;;0.53;;
54197;SDS011;40105;52.366;17.000;2024-03-23T05:26:57;5.23;;;0.90;;
54197;SDS011;40105;52.366;17.000;2024-03-23T05:29:24;0.47;;;0.47;;
54197;SDS011;40105;52.366;17.000;2024-03-23T05:31:51;1.45;;;1.10;;
54197;SDS011;40105;52.366;17.000;2024-03-23T05:34:16;5.88;;;1.10;;
54197;SDS011;40105;52.366;17.000;2024-03-23T05:36:41;3.60;;;1.30;;
54197;SDS011;40105;52.366;17.000;2024-03-23T05:39:07;0.27;;;0.20;;
54197;SDS011;40105;52.366;17.000;2024-03-23T05:41:32;1.38;;;0.85;;
54197;SDS011;40105;52.366;17.000;2024-03-23T05:43:58;0.10;;;0.10;;
54197;SDS011;40105;52.366;17.000;2024-03-23T05:46:23;4.63;;;1.07;;
54197;SDS011;40105;52.366;17.000;2024-03-23T05:48:49;0.07;;;0.07;;
54197;SDS011;40105;52.366;17.000;2024-03-23T05:51:15;0.17;;;0.17;;
54197;SDS011;40105;52.366;17.000;2024-03-23T05:53:41;1.65;;;0.75;;
54197;SDS011;40105;52.366;17.000;2024-03-23T05:56:06;0.70;;;0.53;;
54197;SDS011;40105;52.366;17.000;2024-03-23T05:58:32;1.93;;;0.97;;
54197;SDS011;40105;52.366;17.000;2024-03-23T06:01:00;18.77;;;1.58;;
54197;SDS011;40105;52.366;17.000;2024-03-23T06:03:26;1.08;;;0.98;;
54197;SDS011;40105;52.366;17.000;2024-03-23T06:05:51;1.60;;;1.30;;
54197;SDS011;40105;52.366;17.000;2024-03-23T06:08:18;0.30;;;0.30;;
54197;SDS011;40105;52.366;17.000;2024-03-23T06:10:43;1.75;;;0.73;;
54197;SDS011;40105;52.366;17.000;2024-03-23T06:13:08;0.10;;;0.10;;
54197;SDS011;40105;52.366;17.000;2024-03-23T06:15:33;2.27;;;0.70;;
54197;SDS011;40105;52.366;17.000;2024-03-23T06:18:02;2.28;;;0.45;;
54197;SDS011;40105;52.366;17.000;2024-03-23T06:20:28;0.85;;;0.65;;
54197;SDS011;40105;52.366;17.000;2024-03-23T06:22:54;0.47;;;0.27;;
54197;SDS011;40105;52.366;17.000;2024-03-23T06:25:19;0.40;;;0.40;;
54197;SDS011;40105;52.366;17.000;2024-03-23T06:27:44;0.10;;;0.10;;
54197;SDS011;40105;52.366;17.000;2024-03-23T06:30:09;0.20;;;0.20;;
54197;SDS011;40105;52.366;17.000;2024-03-23T06:32:34;0.15;;;0.15;;
54197;SDS011;40105;52.366;17.000;2024-03-23T06:35:00;0.10;;;0.10;;
54197;SDS011;40105;52.366;17.000;2024-03-23T06:37:25;0.57;;;0.57;;
54197;SDS011;40105;52.366;17.000;2024-03-23T06:39:50;0.25;;;0.17;;
54197;SDS011;40105;52.366;17.000;2024-03-23T06:42:16;0.10;;;0.10;;
54197;SDS011;40105;52.366;17.000;2024-03-23T06:44:41;0.10;;;0.10;;
54197;SDS011;40105;52.366;17.000;2024-03-23T06:47:06;0.35;;;0.35;;
54197;SDS011;40105;52.366;17.000;2024-03-23T06:49:31;2.43;;;1.07;;
54197;SDS011;40105;52.366;17.000;2024-03-23T06:51:56;0.33;;;0.33;;
54197;SDS011;40105;52.366;17.000;2024-03-23T06:54:22;8.70;;;1.87;;
54197;SDS011;40105;52.366;17.000;2024-03-23T06:56:47;0.22;;;0.22;;
54197;SDS011;40105;52.366;17.000;2024-03-23T06:59:12;0.67;;;0.67;;
54197;SDS011;40105;52.366;17.000;2024-03-23T07:01:37;4.20;;;1.03;;
54197;SDS011;40105;52.366;17.000;2024-03-23T07:04:02;0.10;;;0.10;;
54197;SDS011;40105;52.366;17.000;2024-03-23T07:06:29;2.67;;;1.92;;
54197;SDS011;40105;52.366;17.000;2024-03-23T07:08:54;1.83;;;1.70;;
54197;SDS011;40105;52.366;17.000;2024-03-23T07:11:19;0.87;;;0.20;;
54197;SDS011;40105;52.366;17.000;2024-03-23T07:13:45;1.63;;;0.88;;
54197;SDS011;40105;52.366;17.000;2024-03-23T07:16:10;0.47;;;0.47;;
54197;SDS011;40105;52.366;17.000;2024-03-23T07:18:35;1.90;;;1.73;;
54197;SDS011;40105;52.366;17.000;2024-03-23T07:21:00;1.17;;;0.93;;
54197;SDS011;40105;52.366;17.000;2024-03-23T07:23:25;3.27;;;2.50;;
54197;SDS011;40105;52.366;17.000;2024-03-23T07:28:22;0.85;;;0.80;;
54197;SDS011;40105;52.366;17.000;2024-03-23T07:30:47;1.73;;;1.63;;
54197;SDS011;40105;52.366;17.000;2024-03-23T07:33:12;0.47;;;0.47;;
54197;SDS011;40105;52.366;17.000;2024-03-23T07:35:37;2.23;;;0.53;;
54197;SDS011;40105;52.366;17.000;2024-03-23T07:38:03;2.23;;;2.03;;
54197;SDS011;40105;52.366;17.000;2024-03-23T07:40:30;0.95;;;0.95;;
54197;SDS011;40105;52.366;17.000;2024-03-23T07:42:55;1.13;;;0.90;;
54197;SDS011;40105;52.366;17.000;2024-03-23T07:45:20;6.17;;;1.93;;
54197;SDS011;40105;52.366;17.000;2024-03-23T07:47:46;2.97;;;2.00;;
54197;SDS011;40105;52.366;17.000;2024-03-23T07:50:11;2.57;;;1.57;;
54197;SDS011;40105;52.366;17.000;2024-03-23T07:52:36;1.00;;;0.83;;
54197;SDS011;40105;52.366;17.000;2024-03-23T07:55:01;0.55;;;0.55;;
54197;SDS011;40105;52.366;17.000;2024-03-23T07:57:28;8.02;;;3.25;;
54197;SDS011;40105;52.366;17.000;2024-03-23T07:59:53;3.10;;;1.70;;
54197;SDS011;40105;52.366;17.000;2024-03-23T08:02:18;4.20;;;1.27;;
54197;SDS011;40105;52.366;17.000;2024-03-23T08:04:43;0.20;;;0.20;;
54197;SDS011;40105;52.366;17.000;2024-03-23T08:07:08;0.87;;;0.87;;
54197;SDS011;40105;52.366;17.000;2024-03-23T08:09:33;0.98;;;0.98;;
54197;SDS011;40105;52.366;17.000;2024-03-23T08:11:58;10.43;;;1.30;;
54197;SDS011;40105;52.366;17.000;2024-03-23T08:14:24;1.03;;;0.97;;
54197;SDS011;40105;52.366;17.000;2024-03-23T08:16:49;4.20;;;3.10;;
54197;SDS011;40105;52.366;17.000;2024-03-23T08:19:16;1.20;;;0.90;;
54197;SDS011;40105;52.366;17.000;2024-03-23T08:21:41;1.10;;;1.00;;
54197;SDS011;40105;52.366;17.000;2024-03-23T08:24:06;14.80;;;2.20;;
54197;SDS011;40105;52.366;17.000;2024-03-23T08:26:31;2.92;;;1.55;;
54197;SDS011;40105;52.366;17.000;2024-03-23T08:28:57;11.05;;;1.85;;
54197;SDS011;40105;52.366;17.000;2024-03-23T08:31:22;2.90;;;0.30;;
54197;SDS011;40105;52.366;17.000;2024-03-23T08:33:48;0.43;;;0.43;;
54197;SDS011;40105;52.366;17.000;2024-03-23T08:36:13;0.63;;;0.63;;
54197;SDS011;40105;52.366;17.000;2024-03-23T08:38:39;3.45;;;1.58;;
54197;SDS011;40105;52.366;17.000;2024-03-23T08:41:05;1.63;;;0.97;;
54197;SDS011;40105;52.366;17.000;2024-03-23T08:43:31;2.28;;;1.77;;
54197;SDS011;40105;52.366;17.000;2024-03-23T08:48:31;5.00;;;1.58;;
54197;SDS011;40105;52.366;17.000;2024-03-23T08:51:06;0.60;;;0.60;;
54197;SDS011;40105;52.366;17.000;2024-03-23T08:53:31;1.60;;;0.90;;
54197;SDS011;40105;52.366;17.000;2024-03-23T08:55:57;8.75;;;1.92;;
54197;SDS011;40105;52.366;17.000;2024-03-23T08:58:23;2.40;;;1.95;;
54197;SDS011;40105;52.366;17.000;2024-03-23T09:00:49;1.60;;;1.50;;
54197;SDS011;40105;52.366;17.000;2024-03-23T09:03:14;0.77;;;0.67;;
54197;SDS011;40105;52.366;17.000;2024-03-23T09:05:39;1.57;;;1.47;;
54197;SDS011;40105;52.366;17.000;2024-03-23T09:08:05;2.80;;;1.33;;
54197;SDS011;40105;52.366;17.000;2024-03-23T09:10:30;0.95;;;0.85;;
54197;SDS011;40105;52.366;17.000;2024-03-23T09:12:55;1.47;;;1.37;;
54197;SDS011;40105;52.366;17.000;2024-03-23T09:15:20;2.03;;;1.63;;
54197;SDS011;40105;52.366;17.000;2024-03-23T09:17:45;2.25;;;1.75;;
54197;SDS011;40105;52.366;17.000;2024-03-23T09:20:11;1.50;;;1.40;;
54197;SDS011;40105;52.366;17.000;2024-03-23T09:22:36;2.75;;;1.08;;
54197;SDS011;40105;52.366;17.000;2024-03-23T09:25:01;4.43;;;0.70;;
54197;SDS011;40105;52.366;17.000;2024-03-23T09:27:26;0.60;;;0.60;;
54197;SDS011;40105;52.366;17.000;2024-03-23T09:29:51;2.63;;;1.13;;
54197;SDS011;40105;52.366;17.000;2024-03-23T09:32:16;0.87;;;0.60;;
54197;SDS011;40105;52.366;17.000;2024-03-23T09:34:42;6.40;;;2.03;;
54197;SDS011;40105;52.366;17.000;2024-03-23T09:37:07;2.20;;;1.83;;
54197;SDS011;40105;52.366;17.000;2024-03-23T09:39:32;0.53;;;0.53;;
54197;SDS011;40105;52.366;17.000;2024-03-23T09:41:57;3.23;;;2.13;;
54197;SDS011;40105;52.366;17.000;2024-03-23T09:44:22;0.25;;;0.25;;
54197;SDS011;40105;52.366;17.000;2024-03-23T09:46:48;1.63;;;1.20;;
54197;SDS011;40105;52.366;17.000;2024-03-23T09:49:13;2.93;;;0.97;;
54197;SDS011;40105;52.366;17.000;2024-03-23T09:51:38;8.43;;;2.40;;
54197;SDS011;40105;52.366;17.000;2024-03-23T09:54:03;1.30;;;1.07;;
54197;SDS011;40105;52.366;17.000;2024-03-23T09:56:29;3.17;;;2.87;;
54197;SDS011;40105;52.366;17.000;2024-03-23T09:59:01;1.43;;;1.17;;
54197;SDS011;40105;52.366;17.000;2024-03-23T10:01:27;0.63;;;0.63;;
54197;SDS011;40105;52.366;17.000;2024-03-23T10:03:52;3.03;;;1.17;;
54197;SDS011;40105;52.366;17.000;2024-03-23T10:06:17;2.90;;;0.77;;
54197;SDS011;40105;52.366;17.000;2024-03-23T10:08:46;3.25;;;1.35;;
54197;SDS011;40105;52.366;17.000;2024-03-23T10:11:14;0.60;;;0.60;;
54197;SDS011;40105;52.366;17.000;2024-03-23T10:13:41;0.47;;;0.47;;
54197;SDS011;40105;52.366;17.000;2024-03-23T10:16:06;1.90;;;1.48;;
54197;SDS011;40105;52.366;17.000;2024-03-23T10:18:31;1.03;;;0.50;;
54197;SDS011;40105;52.366;17.000;2024-03-23T10:23:34;0.70;;;0.52;;
54197;SDS011;40105;52.366;17.000;2024-03-23T10:26:18;1.17;;;0.75;;
54197;SDS011;40105;52.366;17.000;2024-03-23T10:28:57;0.28;;;0.28;;
54197;SDS011;40105;52.366;17.000;2024-03-23T10:31:42;0.60;;;0.47;;
54197;SDS011;40105;52.366;17.000;2024-03-23T10:34:07;1.53;;;1.23;;
54197;SDS011;40105;52.366;17.000;2024-03-23T10:36:33;1.92;;;0.95;;
54197;SDS011;40105;52.366;17.000;2024-03-23T10:38:59;3.85;;;1.80;;
54197;SDS011;40105;52.366;17.000;2024-03-23T10:41:26;6.07;;;2.45;;
54197;SDS011;40105;52.366;17.000;2024-03-23T10:43:52;5.90;;;2.47;;
54197;SDS011;40105;52.366;17.000;2024-03-23T10:46:18;2.92;;;2.38;;
54197;SDS011;40105;52.366;17.000;2024-03-23T10:48:43;0.70;;;0.70;;
54197;SDS011;40105;52.366;17.000;2024-03-23T10:51:09;1.73;;;0.77;;
54197;SDS011;40105;52.366;17.000;2024-03-23T10:53:34;2.17;;;1.92;;
54197;SDS011;40105;52.366;17.000;2024-03-23T10:56:00;1.17;;;1.08;;
54197;SDS011;40105;52.366;17.000;2024-03-23T10:58:32;3.40;;;2.58;;
54197;SDS011;40105;52.366;17.000;2024-03-23T11:00:58;15.13;;;3.00;;
54197;SDS011;40105;52.366;17.000;2024-03-23T11:03:33;2.57;;;1.43;;
54197;SDS011;40105;52.366;17.000;2024-03-23T11:05:59;0.70;;;0.70;;
54197;SDS011;40105;52.366;17.000;2024-03-23T11:08:31;0.47;;;0.45;;
54197;SDS011;40105;52.366;17.000;2024-03-23T11:13:40;3.72;;;1.83;;
54197;SDS011;40105;52.366;17.000;2024-03-23T11:16:12;3.67;;;0.83;;
54197;SDS011;40105;52.366;17.000;2024-03-23T11:18:38;0.50;;;0.50;;
54197;SDS011;40105;52.366;17.000;2024-03-23T11:21:03;0.17;;;0.17;;
54197;SDS011;40105;52.366;17.000;2024-03-23T11:23:28;1.13;;;0.83;;
54197;SDS011;40105;52.366;17.000;2024-03-23T11:25:54;4.15;;;2.63;;
54197;SDS011;40105;52.366;17.000;2024-03-23T11:28:19;1.98;;;1.27;;
54197;SDS011;40105;52.366;17.000;2024-03-23T11:30:44;1.77;;;1.50;;
54197;SDS011;40105;52.366;17.000;2024-03-23T11:33:09;0.43;;;0.43;;
54197;SDS011;40105;52.366;17.000;2024-03-23T11:35:39;1.33;;;0.68;;
54197;SDS011;40105;52.366;17.000;2024-03-23T11:38:06;5.00;;;0.90;;
54197;SDS011;40105;52.366;17.000;2024-03-23T11:40:35;0.15;;;0.15;;
54197;SDS011;40105;52.366;17.000;2024-03-23T11:43:01;0.63;;;0.63;;
54197;SDS011;40105;52.366;17.000;2024-03-23T11:45:26;1.00;;;0.77;;
54197;SDS011;40105;52.366;17.000;2024-03-23T11:48:13;0.32;;;0.32;;
54197;SDS011;40105;52.366;17.000;2024-03-23T11:50:38;1.35;;;1.25;;
54197;SDS011;40105;52.366;17.000;2024-03-23T11:53:09;0.77;;;0.43;;
54197;SDS011;40105;52.366;17.000;2024-03-23T11:55:47;0.55;;;0.55;;
54197;SDS011;40105;52.366;17.000;2024-03-23T11:58:13;0.25;;;0.25;;
54197;SDS011;40105;52.366;17.000;2024-03-23T12:00:39;2.03;;;0.77;;
54197;SDS011;40105;52.366;17.000;2024-03-23T12:03:04;0.10;;;0.10;;
54197;SDS011;40105;52.366;17.000;2024-03-23T12:05:33;4.90;;;1.77;;
54197;SDS011;40105;52.366;17.000;2024-03-23T12:10:46;2.90;;;1.58;;
54197;SDS011;40105;52.366;17.000;2024-03-23T12:13:36;1.00;;;0.60;;
54197;SDS011;40105;52.366;17.000;2024-03-23T12:18:39;1.40;;;1.02;;
54197;SDS011;40105;52.366;17.000;2024-03-23T12:21:07;1.50;;;1.38;;
54197;SDS011;40105;52.366;17.000;2024-03-23T12:23:32;0.32;;;0.32;;
54197;SDS011;40105;52.366;17.000;2024-03-23T12:25:58;3.07;;;1.53;;
54197;SDS011;40105;52.366;17.000;2024-03-23T12:28:23;1.35;;;1.23;;
54197;SDS011;40105;52.366;17.000;2024-03-23T12:30:48;0.45;;;0.45;;
54197;SDS011;40105;52.366;17.000;2024-03-23T12:33:13;1.80;;;1.20;;
54197;SDS011;40105;52.366;17.000;2024-03-23T12:35:39;1.77;;;1.10;;
54197;SDS011;40105;52.366;17.000;2024-03-23T12:38:04;0.40;;;0.40;;
54197;SDS011;40105;52.366;17.000;2024-03-23T12:40:29;1.70;;;1.57;;
54197;SDS011;40105;52.366;17.000;2024-03-23T12:42:54;4.50;;;1.07;;
54197;SDS011;40105;52.366;17.000;2024-03-23T12:45:20;2.78;;;1.48;;
54197;SDS011;40105;52.366;17.000;2024-03-23T12:47:46;0.50;;;0.50;;
54197;SDS011;40105;52.366;17.000;2024-03-23T12:50:11;0.50;;;0.50;;
54197;SDS011;40105;52.366;17.000;2024-03-23T12:52:36;0.30;;;0.30;;
54197;SDS011;40105;52.366;17.000;2024-03-23T12:55:02;0.57;;;0.57;;
54197;SDS011;40105;52.366;17.000;2024-03-23T12:57:28;0.20;;;0.20;;
54197;SDS011;40105;52.366;17.000;2024-03-23T12:59:53;0.40;;;0.40;;
54197;SDS011;40105;52.366;17.000;2024-03-23T13:02:22;0.50;;;0.30;;
54197;SDS011;40105;52.366;17.000;2024-03-23T13:04:50;0.20;;;0.20;;
54197;SDS011;40105;52.366;17.000;2024-03-23T13:07:16;0.28;;;0.28;;
54197;SDS011;40105;52.366;17.000;2024-03-23T13:09:42;0.25;;;0.25;;
54197;SDS011;40105;52.366;17.000;2024-03-23T13:12:07;0.07;;;0.07;;
54197;SDS011;40105;52.366;17.000;2024-03-23T13:14:32;5.72;;;2.88;;
54197;SDS011;40105;52.366;17.000;2024-03-23T13:16:58;0.93;;;0.43;;
54197;SDS011;40105;52.366;17.000;2024-03-23T13:19:23;2.50;;;1.03;;
54197;SDS011;40105;52.366;17.000;2024-03-23T13:21:52;0.65;;;0.45;;
54197;SDS011;40105;52.366;17.000;2024-03-23T13:24:17;1.30;;;0.90;;
54197;SDS011;40105;52.366;17.000;2024-03-23T13:26:42;0.73;;;0.50;;
54197;SDS011;40105;52.366;17.000;2024-03-23T13:29:07;0.37;;;0.20;;
54197;SDS011;40105;52.366;17.000;2024-03-23T13:31:32;0.53;;;0.53;;
54197;SDS011;40105;52.366;17.000;2024-03-23T13:33:59;0.20;;;0.20;;
54197;SDS011;40105;52.366;17.000;2024-03-23T13:36:24;1.73;;;0.87;;
54197;SDS011;40105;52.366;17.000;2024-03-23T13:38:49;0.00;;;0.00;;
54197;SDS011;40105;52.366;17.000;2024-03-23T13:41:14;0.40;;;0.40;;
54197;SDS011;40105;52.366;17.000;2024-03-23T13:43:39;0.20;;;0.17;;
54197;SDS011;40105;52.366;17.000;2024-03-23T13:46:05;0.20;;;0.20;;
54197;SDS011;40105;52.366;17.000;2024-03-23T13:48:30;0.10;;;0.10;;
54197;SDS011;40105;52.366;17.000;2024-03-23T13:53:24;0.75;;;0.68;;
54197;SDS011;40105;52.366;17.000;2024-03-23T13:55:49;0.13;;;0.13;;
54197;SDS011;40105;52.366;17.000;2024-03-23T13:58:15;0.57;;;0.35;;
54197;SDS011;40105;52.366;17.000;2024-03-23T14:00:40;0.00;;;0.00;;
54197;SDS011;40105;52.366;17.000;2024-03-23T14:03:06;0.00;;;0.00;;
54197;SDS011;40105;52.366;17.000;2024-03-23T14:05:31;0.20;;;0.20;;
54197;SDS011;40105;52.366;17.000;2024-03-23T14:07:56;0.00;;;0.00;;
54197;SDS011;40105;52.366;17.000;2024-03-23T14:10:21;0.00;;;0.00;;
54197;SDS011;40105;52.366;17.000;2024-03-23T14:12:47;0.00;;;0.00;;
54197;SDS011;40105;52.366;17.000;2024-03-23T14:15:12;1.08;;;0.75;;
54197;SDS011;40105;52.366;17.000;2024-03-23T14:17:37;1.40;;;0.20;;
54197;SDS011;40105;52.366;17.000;2024-03-23T14:20:03;0.00;;;0.00;;
54197;SDS011;40105;52.366;17.000;2024-03-23T14:22:30;0.05;;;0.05;;
54197;SDS011;40105;52.366;17.000;2024-03-23T14:24:55;0.00;;;0.00;;
54197;SDS011;40105;52.366;17.000;2024-03-23T14:27:20;0.30;;;0.10;;
54197;SDS011;40105;52.366;17.000;2024-03-23T14:29:46;0.90;;;0.35;;
54197;SDS011;40105;52.366;17.000;2024-03-23T14:32:12;0.25;;;0.17;;
54197;SDS011;40105;52.366;17.000;2024-03-23T14:34:37;4.60;;;1.30;;
54197;SDS011;40105;52.366;17.000;2024-03-23T14:37:02;0.43;;;0.27;;
54197;SDS011;40105;52.366;17.000;2024-03-23T14:39:28;1.30;;;1.00;;
54197;SDS011;40105;52.366;17.000;2024-03-23T14:41:53;0.57;;;0.47;;
54197;SDS011;40105;52.366;17.000;2024-03-23T14:44:19;0.20;;;0.20;;
54197;SDS011;40105;52.366;17.000;2024-03-23T14:46:44;0.83;;;0.50;;
54197;SDS011;40105;52.366;17.000;2024-03-23T14:49:14;1.90;;;1.20;;
54197;SDS011;40105;52.366;17.000;2024-03-23T14:51:41;0.20;;;0.20;;
54197;SDS011;40105;52.366;17.000;2024-03-23T14:54:06;0.10;;;0.10;;
54197;SDS011;40105;52.366;17.000;2024-03-23T14:56:32;0.10;;;0.10;;
54197;SDS011;40105;52.366;17.000;2024-03-23T14:58:57;0.10;;;0.10;;
54197;SDS011;40105;52.366;17.000;2024-03-23T15:01:22;0.30;;;0.30;;
54197;SDS011;40105;52.366;17.000;2024-03-23T15:03:47;2.33;;;1.50;;
54197;SDS011;40105;52.366;17.000;2024-03-23T15:06:12;0.10;;;0.10;;
54197;SDS011;40105;52.366;17.000;2024-03-23T15:08:38;0.40;;;0.30;;
54197;SDS011;40105;52.366;17.000;2024-03-23T15:11:03;10.07;;;4.90;;
54197;SDS011;40105;52.366;17.000;2024-03-23T15:13:31;6.32;;;5.68;;
54197;SDS011;40105;52.366;17.000;2024-03-23T15:15:56;2.60;;;1.52;;
54197;SDS011;40105;52.366;17.000;2024-03-23T15:18:21;0.30;;;0.30;;
54197;SDS011;40105;52.366;17.000;2024-03-23T15:20:54;0.43;;;0.43;;
54197;SDS011;40105;52.366;17.000;2024-03-23T15:23:20;2.20;;;1.52;;
54197;SDS011;40105;52.366;17.000;2024-03-23T15:25:45;0.15;;;0.15;;
54197;SDS011;40105;52.366;17.000;2024-03-23T15:28:10;4.47;;;3.97;;
54197;SDS011;40105;52.366;17.000;2024-03-23T15:30:36;9.83;;;4.33;;
54197;SDS011;40105;52.366;17.000;2024-03-23T15:33:01;6.60;;;4.23;;
54197;SDS011;40105;52.366;17.000;2024-03-23T15:35:26;0.10;;;0.10;;
54197;SDS011;40105;52.366;17.000;2024-03-23T15:37:51;3.63;;;0.70;;
54197;SDS011;40105;52.366;17.000;2024-03-23T15:40:16;10.83;;;6.60;;
54197;SDS011;40105;52.366;17.000;2024-03-23T15:42:42;2.10;;;1.73;;